Alida, Minnesota
Current Conditions -  °F | °C
As of 8:33 PM on Friday 31 Oct 2014 (Local Time) from KBJI Reporting Station
Clear Clear  
Wind Chill: 19°   Ceiling: Unl
Heat Index: 26°   Visibility: 10mi
Dew Point: 16°   Wind: 6mph
Humidity: 66%   Direction: 140°SE
Pressure: 30.41"   Gusts: NA
Location:  47.4609°N, 95.2384°W
Report Text: KBJI 010133Z AUTO 14005KT 10SM CLR M03/M09 A3041 RMK AO2 T10351091
Loading
Personal Weather Stations






























Interactive Weather Map
Tropical Storm Tracking
New forecast layout! Learn more

10-Day Weather Forecast

Advertisements
Track Severe Weather on mobile